Terminal Aerodrome Forecast
Issued by NWS

Home | Current Version | Previous Version | Text Only | Print | Product List | Glossary On
Versions: 1 2 3 4 5 6 7 8 9 10 11 12 13 14 15 16 17 18 19 20 21
000
FTUS43 KPAH 150520
TAFCGI
TAF
KCGI 150520Z 1506/1606 05007KT P6SM OVC040
     FM151100 08008KT P6SM VCSH OVC025
     FM151600 07006KT P6SM OVC030 PROB30 1520/1602 4SM -SHRA OVC015
     FM160200 09004KT 4SM BR VCSH OVC015=

USA.gov is the U.S. government's official web portal to all federal, state and local government web resources and services.